createdAt,value
2023-04-08T00:01:42.256Z,101957.13
2023-04-08T00:05:03.969Z,101961.50
2023-04-08T00:08:25.663Z,101961.44
2023-04-08T00:11:48.325Z,101960.50
2023-04-08T00:15:10.673Z,101953.34
2023-04-08T00:18:32.207Z,101961.28
2023-04-08T00:21:54.019Z,101958.50
2023-04-08T00:25:16.058Z,101966.38
2023-04-08T00:28:39.592Z,101967.00
2023-04-08T00:32:00.915Z,101963.41
2023-04-08T00:35:22.352Z,101965.97
2023-04-08T00:38:43.799Z,101969.56
2023-04-08T00:42:05.722Z,101961.56
2023-04-08T00:45:28.435Z,101969.50
2023-04-08T00:48:50.103Z,101979.16
2023-04-08T00:52:11.738Z,101974.00
2023-04-08T00:55:33.459Z,101979.31
2023-04-08T00:58:55.598Z,101983.72
2023-04-08T01:02:26.162Z,101975.78
2023-04-08T01:05:57.624Z,101984.59
2023-04-08T01:09:22.644Z,101985.38
2023-04-08T01:12:51.478Z,101982.72
2023-04-08T01:16:17.178Z,101980.00
2023-04-08T01:19:44.737Z,101983.97
2023-04-08T01:23:14.368Z,101985.03
2023-04-08T01:26:38.430Z,101987.81
2023-04-08T01:30:02.210Z,101979.88
2023-04-08T01:33:28.894Z,101985.31
2023-04-08T01:36:52.027Z,101987.97
2023-04-08T01:40:14.586Z,101980.81
2023-04-08T01:43:39.589Z,101982.50
2023-04-08T01:47:02.181Z,101980.81
2023-04-08T01:50:24.963Z,101986.03
2023-04-08T01:53:46.658Z,101988.69
2023-04-08T01:57:12.861Z,101989.66
2023-04-08T02:00:37.725Z,101992.41
2023-04-08T02:04:00.520Z,101989.97
2023-04-08T02:07:22.926Z,101998.78
2023-04-08T02:10:44.552Z,102009.28
2023-04-08T02:14:06.454Z,102003.06
2023-04-08T02:17:36.189Z,102010.06
2023-04-08T02:21:03.219Z,102011.63
2023-04-08T02:24:25.319Z,102004.63
2023-04-08T02:27:48.873Z,102008.03
2023-04-08T02:31:13.712Z,102006.34
2023-04-08T02:34:41.428Z,102014.22
2023-04-08T02:38:03.340Z,102010.78
2023-04-08T02:41:24.858Z,102014.94
2023-04-08T02:44:46.256Z,102022.63
2023-04-08T02:48:08.075Z,102028.81
2023-04-08T02:51:30.620Z,102034.88
2023-04-08T02:54:51.805Z,102024.34
2023-04-08T02:58:13.091Z,102028.81
2023-04-08T03:01:34.575Z,102029.66
2023-04-08T03:04:56.100Z,102039.41
2023-04-08T03:08:19.320Z,102028.03
2023-04-08T03:11:40.602Z,102038.59
2023-04-08T03:15:03.429Z,102044.84
2023-04-08T03:18:25.545Z,102050.97
2023-04-08T03:21:47.283Z,102046.59
2023-04-08T03:25:11.890Z,102050.91
2023-04-08T03:28:33.373Z,102042.97
2023-04-08T03:31:55.157Z,102043.81
2023-04-08T03:35:17.641Z,102048.19
2023-04-08T03:38:38.917Z,102042.97
2023-04-08T03:42:03.065Z,102050.91
2023-04-08T03:45:24.953Z,102072.09
2023-04-08T03:48:46.135Z,102064.16
2023-04-08T03:52:07.583Z,102076.44
2023-04-08T03:55:29.134Z,102065.06
2023-04-08T03:58:52.001Z,102067.72
2023-04-08T04:02:13.955Z,102066.16
2023-04-08T04:05:35.631Z,102066.06
2023-04-08T04:08:57.016Z,102081.31
2023-04-08T04:12:18.510Z,102080.56
2023-04-08T04:15:41.765Z,102077.78
2023-04-08T04:19:03.182Z,102080.31
2023-04-08T04:22:24.778Z,102082.81
2023-04-08T04:25:46.200Z,102088.97
2023-04-08T04:29:07.492Z,102093.41
2023-04-08T04:32:30.072Z,102089.84
2023-04-08T04:35:52.041Z,102097.91
2023-04-08T04:39:13.493Z,102104.19
2023-04-08T04:42:34.796Z,102100.66
2023-04-08T04:45:57.035Z,102111.16
2023-04-08T04:49:20.032Z,102106.50
2023-04-08T04:52:41.512Z,102110.06
2023-04-08T04:56:03.645Z,102103.91
2023-04-08T04:59:25.437Z,102109.13
2023-04-08T05:02:47.455Z,102113.50
2023-04-08T05:06:11.793Z,102126.59
2023-04-08T05:09:33.418Z,102130.09
2023-04-08T05:12:54.657Z,102134.53
2023-04-08T05:16:16.609Z,102133.75
2023-04-08T05:19:38.157Z,102138.97
2023-04-08T05:23:00.737Z,102138.91
2023-04-08T05:26:22.876Z,102139.75
2023-04-08T05:29:44.488Z,102142.41
2023-04-08T05:33:05.942Z,102142.34
2023-04-08T05:36:27.442Z,102139.88
2023-04-08T05:39:50.683Z,102144.41
2023-04-08T05:43:12.305Z,102158.56
2023-04-08T05:46:34.078Z,102159.44
2023-04-08T05:49:55.683Z,102159.56
2023-04-08T05:53:17.000Z,102170.16
2023-04-08T05:56:40.609Z,102172.81
2023-04-08T06:00:02.456Z,102183.31
2023-04-08T06:03:28.056Z,102180.66
2023-04-08T06:06:50.076Z,102192.91
2023-04-08T06:10:11.867Z,102182.25
2023-04-08T06:13:34.830Z,102189.19
2023-04-08T06:16:57.341Z,102183.75
2023-04-08T06:20:18.835Z,102188.03
2023-04-08T06:23:40.474Z,102189.69
2023-04-08T06:27:01.844Z,102190.50
2023-04-08T06:30:25.411Z,102195.72
2023-04-08T06:33:46.951Z,102202.78
2023-04-08T06:37:08.828Z,102196.72
2023-04-08T06:40:30.717Z,102206.38
2023-04-08T06:43:52.203Z,102209.03
2023-04-08T06:47:17.008Z,102219.56
2023-04-08T06:50:38.226Z,102222.25
2023-04-08T06:54:00.028Z,102224.06
2023-04-08T06:57:21.754Z,102222.41
2023-04-08T07:00:43.779Z,102232.25
2023-04-08T07:04:06.435Z,102239.22
2023-04-08T07:07:28.339Z,102245.44
2023-04-08T07:10:49.828Z,102250.59
2023-04-08T07:14:11.744Z,102248.69
2023-04-08T07:17:34.025Z,102254.75
2023-04-08T07:20:57.925Z,102250.31
2023-04-08T07:24:19.176Z,102269.50
2023-04-08T07:27:40.550Z,102265.78
2023-04-08T07:31:11.672Z,102267.50
2023-04-08T07:34:33.366Z,102262.09
2023-04-08T07:37:57.769Z,102258.38
2023-04-08T07:41:18.904Z,102267.09
2023-04-08T07:44:39.994Z,102267.09
2023-04-08T07:48:01.966Z,102273.25
2023-04-08T07:51:23.565Z,102273.09
2023-04-08T07:54:46.684Z,102280.06
2023-04-08T07:58:07.995Z,102289.53
2023-04-08T08:01:31.262Z,102296.66
2023-04-08T08:04:53.107Z,102293.97
2023-04-08T08:08:14.783Z,102296.63
2023-04-08T08:11:37.545Z,102302.84
2023-04-08T08:14:59.607Z,102291.47
2023-04-08T08:18:21.076Z,102292.03
2023-04-08T08:21:42.334Z,102297.06
2023-04-08T08:25:04.585Z,102306.72
2023-04-08T08:28:27.430Z,102301.19
2023-04-08T08:31:49.243Z,102297.50
2023-04-08T08:35:10.946Z,102310.75
2023-04-08T08:38:32.704Z,102314.84
2023-04-08T08:41:54.275Z,102312.84
2023-04-08T08:45:17.803Z,102316.13
2023-04-08T08:48:40.738Z,102315.97
2023-04-08T08:52:02.511Z,102319.28
2023-04-08T08:58:49.226Z,102318.78
2023-04-08T09:02:25.419Z,102328.53
2023-04-08T09:05:54.103Z,102327.50
2023-04-08T09:09:16.052Z,102329.03
2023-04-08T09:12:55.412Z,102329.81
2023-04-08T09:16:18.890Z,102335.75
2023-04-08T09:20:02.071Z,102334.72
2023-04-08T09:27:42.430Z,102344.03
2023-04-08T09:31:19.838Z,102347.31
2023-04-08T09:34:43.013Z,102354.19
2023-04-08T09:38:04.470Z,102346.91
2023-04-08T09:41:29.882Z,102351.91
2023-04-08T09:44:51.808Z,102350.81
2023-04-08T09:48:18.512Z,102352.53
2023-04-08T09:51:49.863Z,102355.91
2023-04-08T09:55:13.593Z,102355.59
2023-04-08T09:58:42.861Z,102359.72
2023-04-08T10:02:08.881Z,102360.28
2023-04-08T10:05:32.215Z,102361.72
2023-04-08T10:08:55.374Z,102352.66
2023-04-08T10:12:16.556Z,102353.25
2023-04-08T10:15:40.893Z,102357.22
2023-04-08T10:19:02.691Z,102347.06
2023-04-08T10:22:49.921Z,102362.53
2023-04-08T10:26:33.570Z,102344.63
2023-04-08T10:29:55.014Z,102353.06
2023-04-08T10:33:18.318Z,102358.81
2023-04-08T10:36:40.069Z,102354.13
2023-04-08T10:40:01.794Z,102363.03
2023-04-08T10:43:24.456Z,102360.31
2023-04-08T10:46:46.811Z,102353.13
2023-04-08T10:50:14.856Z,102353.97
2023-04-08T10:53:37.775Z,102348.50
2023-04-08T10:56:59.935Z,102353.22
2023-04-08T11:00:35.698Z,102346.56
2023-04-08T11:03:57.595Z,102342.72
2023-04-08T11:07:21.713Z,102344.94
2023-04-08T11:10:45.075Z,102342.56
2023-04-08T11:14:07.398Z,102342.06
2023-04-08T11:17:31.564Z,102339.81
2023-04-08T11:20:53.845Z,102342.81
2023-04-08T11:24:16.483Z,102334.25
2023-04-08T11:27:39.567Z,102347.09
2023-04-08T11:31:01.274Z,102338.78
2023-04-08T11:34:26.270Z,102339.25
2023-04-08T11:37:49.839Z,102338.06
2023-04-08T11:41:12.528Z,102340.47
2023-04-08T11:44:34.546Z,102342.75
2023-04-08T11:47:56.179Z,102352.88
2023-04-08T11:51:18.976Z,102342.06
2023-04-08T11:54:43.277Z,102337.13
2023-04-08T11:58:07.591Z,102338.47
2023-04-08T12:01:29.291Z,102340.78
2023-04-08T12:04:51.132Z,102346.88
2023-04-08T12:08:14.173Z,102337.94
2023-04-08T12:11:35.940Z,102337.75
2023-04-08T12:14:57.653Z,102331.38
2023-04-08T12:18:19.159Z,102328.44
2023-04-08T12:21:40.836Z,102319.97
2023-04-08T12:25:04.250Z,102326.44
2023-04-08T12:28:25.849Z,102325.88
2023-04-08T12:31:47.277Z,102321.88
2023-04-08T12:35:10.092Z,102326.06
2023-04-08T12:38:31.557Z,102318.75
2023-04-08T12:41:54.486Z,102326.47
2023-04-08T12:45:16.241Z,102320.53
2023-04-08T12:48:37.998Z,102321.00
2023-04-08T12:52:00.010Z,102324.03
2023-04-08T12:55:24.914Z,102306.59
2023-04-08T12:58:47.737Z,102307.22
2023-04-08T13:02:09.293Z,102301.69
2023-04-08T13:05:42.876Z,102299.50
2023-04-08T13:09:05.413Z,102297.09
2023-04-08T13:12:27.217Z,102295.94
2023-04-08T13:15:50.867Z,102291.59
2023-04-08T13:19:12.711Z,102292.59
2023-04-08T13:22:34.563Z,102298.09
2023-04-08T13:25:56.226Z,102297.00
2023-04-08T13:29:17.519Z,102286.97
2023-04-08T13:32:40.750Z,102288.78
2023-04-08T13:36:02.393Z,102293.63
2023-04-08T13:39:23.620Z,102295.53
2023-04-08T13:42:45.747Z,102290.53
2023-04-08T13:46:08.105Z,102289.88
2023-04-08T13:49:31.569Z,102290.09
2023-04-08T13:52:53.153Z,102285.28
2023-04-08T13:56:14.416Z,102285.00
2023-04-08T13:59:36.032Z,102296.97
2023-04-08T14:02:57.749Z,102292.78
2023-04-08T14:06:20.536Z,102290.13
2023-04-08T14:09:41.843Z,102285.53
2023-04-08T14:13:03.628Z,102286.47
2023-04-08T14:16:25.037Z,102283.59
2023-04-08T14:19:46.807Z,102283.38
2023-04-08T14:23:09.660Z,102279.22
2023-04-08T14:26:33.180Z,102278.31
2023-04-08T14:29:54.889Z,102286.78
2023-04-08T14:33:16.298Z,102289.88
2023-04-08T14:36:38.541Z,102291.69
2023-04-08T14:40:01.143Z,102286.69
2023-04-08T14:43:22.538Z,102293.75
2023-04-08T14:46:43.909Z,102284.97
2023-04-08T14:50:06.609Z,102277.56
2023-04-08T14:53:28.126Z,102278.44
2023-04-08T14:56:51.394Z,102277.34
2023-04-08T15:00:14.301Z,102287.72
2023-04-08T15:03:36.115Z,102280.66
2023-04-08T15:06:57.831Z,102285.16
2023-04-08T15:10:19.683Z,102281.72
2023-04-08T15:13:43.153Z,102283.66
2023-04-08T15:17:04.904Z,102276.50
2023-04-08T15:20:26.497Z,102281.19
2023-04-08T15:23:47.824Z,102281.38
2023-04-08T15:27:09.405Z,102288.63
2023-04-08T15:30:35.396Z,102278.84
2023-04-08T15:33:58.508Z,102286.97
2023-04-08T15:37:20.347Z,102287.25
2023-04-08T15:40:43.378Z,102284.38
2023-04-08T15:44:04.656Z,102288.06
2023-04-08T15:47:27.532Z,102291.22
2023-04-08T15:50:50.458Z,102290.22
2023-04-08T15:54:12.291Z,102290.91
2023-04-08T15:57:36.022Z,102296.03
2023-04-08T16:00:57.777Z,102301.03
2023-04-08T16:04:20.537Z,102300.69
2023-04-08T16:07:43.109Z,102299.44
2023-04-08T16:11:08.055Z,102299.44
2023-04-08T16:14:30.767Z,102289.97
2023-04-08T16:17:53.558Z,102294.88
2023-04-08T16:21:17.245Z,102301.16
2023-04-08T16:24:38.876Z,102296.88
2023-04-08T16:28:00.494Z,102290.94
2023-04-08T16:31:22.306Z,102302.16
2023-04-08T16:34:43.734Z,102295.75
2023-04-08T16:38:06.537Z,102305.59
2023-04-08T16:41:28.133Z,102316.53
2023-04-08T16:44:49.921Z,102316.66
2023-04-08T16:48:12.639Z,102320.19
2023-04-08T16:51:34.381Z,102317.63
2023-04-08T16:54:57.687Z,102328.38
2023-04-08T16:58:19.793Z,102327.38
2023-04-08T17:01:41.702Z,102333.88
2023-04-08T17:05:03.383Z,102342.34
2023-04-08T17:08:25.968Z,102346.56
2023-04-08T17:11:48.576Z,102346.28
2023-04-08T17:15:11.452Z,102353.66
2023-04-08T17:18:33.255Z,102357.19
2023-04-08T17:21:55.039Z,102365.94
2023-04-08T17:25:16.586Z,102368.69
2023-04-08T17:28:39.872Z,102373.34
2023-04-08T17:32:01.679Z,102379.88
2023-04-08T17:35:23.030Z,102378.84
2023-04-08T17:38:44.311Z,102393.78
2023-04-08T17:42:05.960Z,102386.63
2023-04-08T17:45:28.917Z,102400.47
2023-04-08T17:48:50.355Z,102410.03
2023-04-08T17:52:12.113Z,102416.81
2023-04-08T17:55:33.454Z,102431.50
2023-04-08T17:58:54.753Z,102448.66
2023-04-08T18:02:17.923Z,102444.47
2023-04-08T18:05:39.173Z,102450.00
2023-04-08T18:09:00.908Z,102457.25
2023-04-08T18:12:22.793Z,102469.16
2023-04-08T18:15:44.411Z,102479.72
2023-04-08T18:19:07.114Z,102472.72
2023-04-08T18:22:28.894Z,102481.22
2023-04-08T18:25:50.858Z,102486.03
2023-04-08T18:29:12.463Z,102490.69
2023-04-08T18:32:34.410Z,102490.97
2023-04-08T18:35:59.552Z,102494.78
2023-04-08T18:39:22.602Z,102503.78
2023-04-08T18:42:44.111Z,102518.25
2023-04-08T18:46:05.787Z,102520.91
2023-04-08T18:49:30.224Z,102529.16
2023-04-08T18:52:54.054Z,102534.78
2023-04-08T18:56:16.081Z,102530.47
2023-04-08T18:59:37.770Z,102539.41
2023-04-08T19:02:59.427Z,102542.19
2023-04-08T19:06:22.564Z,102536.84
2023-04-08T19:09:45.589Z,102543.00
2023-04-08T19:13:06.864Z,102536.84
2023-04-08T19:16:28.413Z,102535.97
2023-04-08T19:19:49.957Z,102547.56
2023-04-08T19:23:11.190Z,102545.97
2023-04-08T19:26:34.715Z,102545.19
2023-04-08T19:29:56.251Z,102533.72
2023-04-08T19:33:17.457Z,102541.91
2023-04-08T19:36:38.862Z,102543.03
2023-04-08T19:40:00.601Z,102538.75
2023-04-08T19:43:23.572Z,102539.75
2023-04-08T19:46:45.037Z,102539.94
2023-04-08T19:50:08.439Z,102548.88
2023-04-08T19:53:30.636Z,102541.06
2023-04-08T19:56:52.088Z,102549.03
2023-04-08T20:00:15.551Z,102553.63
2023-04-08T20:03:37.367Z,102552.97
2023-04-08T20:06:58.731Z,102548.84
2023-04-08T20:10:20.619Z,102549.00
2023-04-08T20:13:42.373Z,102550.97
2023-04-08T20:17:05.917Z,102556.38
2023-04-08T20:20:29.912Z,102556.44
2023-04-08T20:23:52.035Z,102555.69
2023-04-08T20:27:13.408Z,102548.81
2023-04-08T20:30:34.820Z,102549.84
2023-04-08T20:33:58.125Z,102552.59
2023-04-08T20:37:19.632Z,102564.19
2023-04-08T20:40:43.904Z,102558.06
2023-04-08T20:44:08.557Z,102563.56
2023-04-08T20:47:30.193Z,102553.09
2023-04-08T20:50:52.831Z,102563.72
2023-04-08T20:54:14.547Z,102562.00
2023-04-08T20:57:35.857Z,102555.03
2023-04-08T21:00:58.993Z,102559.53
2023-04-08T21:04:20.940Z,102556.16
2023-04-08T21:07:44.728Z,102558.91
2023-04-08T21:11:06.642Z,102554.66
2023-04-08T21:14:30.967Z,102561.09
2023-04-08T21:17:52.803Z,102557.66
2023-04-08T21:21:14.033Z,102556.97
2023-04-08T21:24:36.697Z,102557.97
2023-04-08T21:27:58.457Z,102565.13
2023-04-08T21:31:20.178Z,102562.63
2023-04-08T21:34:41.920Z,102567.22
2023-04-08T21:38:03.782Z,102571.69
2023-04-08T21:41:28.422Z,102572.00
2023-04-08T21:44:52.108Z,102573.19
2023-04-08T21:48:14.280Z,102563.72
2023-04-08T21:51:35.879Z,102573.75
2023-04-08T21:54:57.772Z,102567.63
2023-04-08T21:58:20.871Z,102565.81
2023-04-08T22:01:42.556Z,102568.66
2023-04-08T22:05:04.280Z,102563.56
2023-04-08T22:08:26.192Z,102569.06
2023-04-08T22:11:47.794Z,102564.97
2023-04-08T22:15:11.696Z,102557.53
2023-04-08T22:18:32.956Z,102559.69
2023-04-08T22:21:54.693Z,102556.25
2023-04-08T22:25:16.163Z,102554.47
2023-04-08T22:28:37.662Z,102551.97
2023-04-08T22:32:00.382Z,102556.50
2023-04-08T22:35:21.683Z,102555.88
2023-04-08T22:38:43.526Z,102553.34
2023-04-08T22:42:05.411Z,102554.38
2023-04-08T22:45:27.087Z,102562.50
2023-04-08T22:48:50.361Z,102545.81
2023-04-08T22:52:12.352Z,102540.66
2023-04-08T22:55:34.238Z,102547.00
2023-04-08T22:58:56.028Z,102548.84
2023-04-08T23:02:17.669Z,102556.81
2023-04-08T23:05:40.933Z,102549.09
2023-04-08T23:09:02.799Z,102556.31
2023-04-08T23:12:24.580Z,102555.78
2023-04-08T23:15:46.521Z,102549.75
2023-04-08T23:19:07.756Z,102541.00
2023-04-08T23:22:30.920Z,102543.75
2023-04-08T23:25:55.570Z,102544.69
2023-04-08T23:29:17.817Z,102541.25
2023-04-08T23:32:39.254Z,102551.94
2023-04-08T23:36:00.652Z,102564.50
2023-04-08T23:39:24.493Z,102547.00
2023-04-08T23:42:46.201Z,102545.19
2023-04-08T23:46:07.852Z,102555.81
2023-04-08T23:49:29.899Z,102548.84
2023-04-08T23:52:51.227Z,102553.31
2023-04-08T23:56:13.870Z,102549.88
2023-04-08T23:59:35.289Z,102556.94
